Time;durP1;ratioP1;P1;durP2;ratioP2;P2;SDS_P1;SDS_P2;PMS_P1;PMS_P2;Temp;Humidity;BMP_temperature;BMP_pressure;BME280_temperature;BME280_humidity;BME280_pressure;Samples;Min_cycle;Max_cycle;Signal;HPM_P1;HPM_P2
2022/04/04 00:01:26;;;;;;;8.48;7.47;;;;;;;3.10;64.84;96537.34;5113724;28;20034;-64
2022/04/04 00:03:51;;;;;;;10.95;7.60;;;;;;;3.20;64.32;96542.44;5113636;28;20016;-64
2022/04/04 00:06:17;;;;;;;12.50;6.82;;;;;;;3.18;62.98;96542.47;5113539;28;20107;-64
2022/04/04 00:08:43;;;;;;;9.65;7.38;;;;;;;3.27;62.91;96555.31;5113721;28;20016;-64
2022/04/04 00:11:10;;;;;;;8.15;7.18;;;;;;;3.30;62.61;96551.84;5113721;28;20092;-64
2022/04/04 00:13:35;;;;;;;8.20;6.75;;;;;;;3.35;61.26;96549.22;5113685;28;20062;-64
2022/04/04 00:16:01;;;;;;;7.05;5.97;;;;;;;3.38;60.52;96562.13;5113650;28;20035;-64
2022/04/04 00:18:26;;;;;;;10.75;6.25;;;;;;;3.44;61.09;96563.78;5113607;28;20031;-64
2022/04/04 00:20:52;;;;;;;7.22;6.43;;;;;;;3.40;61.91;96574.16;5113481;28;20022;-64
2022/04/04 00:23:18;;;;;;;7.63;6.50;;;;;;;3.32;61.29;96562.16;5113511;28;20027;-65
2022/04/04 00:25:47;;;;;;;8.80;5.70;;;;;;;3.31;60.44;96565.63;5113341;28;20024;-64
2022/04/04 00:28:13;;;;;;;9.90;6.88;;;;;;;3.36;61.02;96558.69;5112154;28;20088;-65
2022/04/04 00:30:40;;;;;;;10.77;6.40;;;;;;;3.33;60.11;96558.69;5113484;28;20477;-64
2022/04/04 00:33:06;;;;;;;7.50;5.97;;;;;;;3.39;59.99;96556.94;5113378;28;20377;-64
2022/04/04 00:35:32;;;;;;;9.45;6.32;;;;;;;3.38;59.83;96552.66;5113553;28;20095;-64
2022/04/04 00:38:02;;;;;;;7.18;5.97;;;;;;;3.36;59.75;96554.38;5113255;28;20104;-64
2022/04/04 00:40:28;;;;;;;11.13;5.55;;;;;;;3.37;59.01;96548.31;5113503;28;20022;-64
2022/04/04 00:42:54;;;;;;;8.60;6.35;;;;;;;3.41;59.53;96552.59;5113128;28;20122;-65
2022/04/04 00:45:20;;;;;;;8.75;6.47;;;;;;;3.43;58.69;96544.81;5113332;28;20523;-64
2022/04/04 00:47:45;;;;;;;8.23;6.38;;;;;;;3.44;59.88;96543.09;5113137;28;20119;-64
2022/04/04 00:50:11;;;;;;;6.63;5.93;;;;;;;3.43;58.64;96538.81;5113301;28;20084;-64
2022/04/04 00:52:38;;;;;;;7.10;5.70;;;;;;;3.37;58.96;96548.31;5113349;28;20023;-64
2022/04/04 00:55:09;;;;;;;9.30;5.70;;;;;;;3.43;58.33;96549.16;5113270;28;20020;-64
2022/04/04 00:57:37;;;;;;;8.35;5.97;;;;;;;3.50;57.66;96563.72;5113192;28;20030;-64
2022/04/04 01:00:09;;;;;;;6.53;5.07;;;;;;;3.44;57.31;96562.06;5113199;28;20442;-64
2022/04/04 01:02:35;;;;;;;6.95;5.18;;;;;;;3.48;57.36;96574.09;5113226;28;20020;-64
2022/04/04 01:05:01;;;;;;;6.10;5.50;;;;;;;3.44;57.93;96568.97;5116271;28;20069;-64
2022/04/04 01:07:26;;;;;;;7.10;5.50;;;;;;;3.47;58.05;96574.09;5116987;28;20027;-64
2022/04/04 01:09:52;;;;;;;8.45;5.25;;;;;;;3.46;56.54;96570.66;5116949;28;20106;-64
2022/04/04 01:12:21;;;;;;;6.13;4.63;;;;;;;3.51;56.59;96575.78;5116971;28;20024;-64
2022/04/04 01:14:48;;;;;;;6.20;4.82;;;;;;;3.45;56.30;96573.25;5116905;28;20031;-65
2022/04/04 01:17:18;;;;;;;5.82;4.95;;;;;;;3.41;55.91;96573.28;5116928;28;20028;-64
2022/04/04 01:19:45;;;;;;;7.20;4.65;;;;;;;3.46;55.78;96572.41;5116932;28;20024;-64
2022/04/04 01:22:13;;;;;;;6.68;4.63;;;;;;;3.50;55.60;96569.78;5116935;28;20051;-64
2022/04/04 01:24:39;;;;;;;7.03;4.35;;;;;;;3.45;55.10;96568.94;5116620;28;20103;-64
2022/04/04 01:27:06;;;;;;;7.57;4.65;;;;;;;3.49;55.35;96568.03;5116628;27;20031;-64
2022/04/04 01:29:31;;;;;;;5.00;4.20;;;;;;;3.43;55.49;96567.25;5116549;28;20530;-64
2022/04/04 01:31:58;;;;;;;5.60;4.38;;;;;;;3.41;54.94;96567.25;5116545;28;20103;-64
2022/04/04 01:34:24;;;;;;;4.88;4.10;;;;;;;3.48;53.68;96580.97;5116488;28;20054;-64
2022/04/04 01:36:50;;;;;;;5.32;4.40;;;;;;;3.48;54.23;96574.09;5116364;28;20055;-64
2022/04/04 01:39:16;;;;;;;5.72;4.25;;;;;;;3.44;54.32;96579.31;5116541;28;20030;-64
2022/04/04 01:41:42;;;;;;;5.50;3.75;;;;;;;3.42;53.47;96579.31;5116029;28;20016;-64
2022/04/04 01:44:08;;;;;;;5.45;3.65;;;;;;;3.39;53.71;96581.94;5116222;28;20040;-64
2022/04/04 01:46:33;;;;;;;4.63;3.63;;;;;;;3.43;52.78;96582.78;5116193;28;20027;-64
2022/04/04 01:49:01;;;;;;;4.18;3.20;;;;;;;3.40;52.91;96576.75;5116349;28;20023;-64
2022/04/04 01:51:27;;;;;;;4.82;3.53;;;;;;;3.39;52.56;96582.78;5116334;28;20389;-64
2022/04/04 01:53:53;;;;;;;6.75;3.42;;;;;;;3.40;51.87;96588.81;5116157;28;20023;-64
2022/04/04 01:56:19;;;;;;;3.30;3.00;;;;;;;3.43;52.41;96587.94;5116040;28;20020;-64
2022/04/04 01:58:46;;;;;;;4.05;3.13;;;;;;;3.40;51.38;96593.97;5116050;28;20027;-64
2022/04/04 02:01:18;;;;;;;3.13;2.83;;;;;;;3.36;51.04;96594.88;5116094;28;20030;-64
2022/04/04 02:03:47;;;;;;;3.75;2.83;;;;;;;3.41;51.05;96593.13;5115983;28;20363;-64
2022/04/04 02:06:13;;;;;;;3.08;2.78;;;;;;;3.38;50.89;96591.44;5115874;28;20484;-64
2022/04/04 02:08:42;;;;;;;2.85;2.55;;;;;;;3.34;51.11;96589.72;5115775;28;20389;-64
2022/04/04 02:11:07;;;;;;;5.38;2.90;;;;;;;3.38;50.74;96588.84;5115834;28;20373;-64
2022/04/04 02:13:33;;;;;;;2.53;2.30;;;;;;;3.37;49.88;96594.88;5115796;28;20012;-64
2022/04/04 02:16:01;;;;;;;4.75;3.30;;;;;;;3.41;50.28;96591.38;5115308;28;20095;-64
2022/04/04 02:18:28;;;;;;;4.35;2.60;;;;;;;3.41;49.73;96596.56;5115595;28;20036;-64
2022/04/04 02:20:54;;;;;;;3.20;2.65;;;;;;;3.45;50.55;96592.22;5115535;28;20026;-65
2022/04/04 02:23:20;;;;;;;3.47;2.72;;;;;;;3.38;49.59;96587.97;5115602;28;20020;-64
2022/04/04 02:25:46;;;;;;;3.00;2.67;;;;;;;3.44;49.64;96587.06;5115559;28;20020;-64
2022/04/04 02:28:13;;;;;;;6.05;3.22;;;;;;;3.42;49.68;96592.25;5115365;28;20034;-64
2022/04/04 02:30:39;;;;;;;3.80;2.92;;;;;;;3.33;49.63;96594.91;5115479;28;20093;-64
2022/04/04 02:33:05;;;;;;;3.42;2.40;;;;;;;3.29;50.54;96597.50;5115284;28;20020;-64
2022/04/04 02:35:31;;;;;;;2.72;2.40;;;;;;;3.23;49.58;96597.59;5115318;28;20016;-64
2022/04/04 02:37:56;;;;;;;2.63;2.10;;;;;;;3.20;50.24;96596.75;5115285;28;20019;-64
2022/04/04 02:40:22;;;;;;;2.85;2.40;;;;;;;3.22;50.31;96595.00;5115422;28;20073;-64
2022/04/04 02:42:48;;;;;;;2.30;2.10;;;;;;;3.21;49.70;96595.88;5115010;28;20381;-64
2022/04/04 02:45:14;;;;;;;2.60;2.40;;;;;;;3.14;51.04;96593.34;5115087;28;20361;-64
2022/04/04 02:47:41;;;;;;;2.42;2.20;;;;;;;3.14;49.92;96598.53;5115015;28;20028;-64
2022/04/04 02:50:07;;;;;;;3.15;2.33;;;;;;;3.15;49.55;96610.56;5114921;28;20354;-64
2022/04/04 02:52:33;;;;;;;2.30;2.10;;;;;;;3.18;50.14;96604.50;5114868;28;20020;-64
2022/04/04 02:54:58;;;;;;;3.13;2.22;;;;;;;3.21;50.20;96604.47;5114812;28;20023;-64
2022/04/04 02:57:24;;;;;;;2.53;2.25;;;;;;;3.10;50.29;96607.16;5114829;27;20016;-64
2022/04/04 02:59:49;;;;;;;2.40;2.20;;;;;;;3.12;49.99;96609.72;5114846;28;20125;-64
2022/04/04 03:02:15;;;;;;;2.45;2.25;;;;;;;3.10;50.67;96607.16;5114839;28;20027;-64
2022/04/04 03:04:42;;;;;;;2.80;2.40;;;;;;;3.03;49.74;96615.81;5114703;28;20104;-64
2022/04/04 03:07:08;;;;;;;3.58;2.67;;;;;;;3.01;49.91;96620.16;5114745;28;20390;-64
2022/04/04 03:09:34;;;;;;;2.55;2.35;;;;;;;2.97;49.50;96615.84;5114703;28;20062;-64
2022/04/04 03:12:01;;;;;;;2.28;2.08;;;;;;;3.00;50.23;96615.84;5114687;28;20096;-64
2022/04/04 03:14:28;;;;;;;3.20;2.30;;;;;;;2.97;49.61;96619.31;5114516;28;20377;-64
2022/04/04 03:16:54;;;;;;;3.15;2.40;;;;;;;2.89;51.37;96619.34;5114556;28;20027;-64
2022/04/04 03:19:19;;;;;;;3.08;2.35;;;;;;;2.89;50.87;96619.34;5114356;28;20077;-65
2022/04/04 03:21:45;;;;;;;3.55;2.47;;;;;;;2.91;51.05;96614.16;5114364;28;20351;-64
2022/04/04 03:24:11;;;;;;;2.42;2.20;;;;;;;2.82;51.45;96611.63;5114422;28;20016;-64
2022/04/04 03:26:37;;;;;;;3.08;2.20;;;;;;;2.78;50.86;96603.94;5113675;28;20400;-64
2022/04/04 03:29:03;;;;;;;3.35;2.13;;;;;;;2.75;51.12;96610.81;5114312;28;20016;-64
2022/04/04 03:31:28;;;;;;;3.38;2.53;;;;;;;2.70;50.80;96623.75;5114136;28;20103;-65
2022/04/04 03:33:54;;;;;;;4.97;2.70;;;;;;;2.61;52.13;96624.66;5114164;28;20023;-64
2022/04/04 03:36:21;;;;;;;4.50;2.28;;;;;;;2.60;52.67;96630.72;5114252;28;20057;-64
2022/04/04 03:38:47;;;;;;;7.10;2.20;;;;;;;2.48;49.95;96634.22;5114196;28;20144;-64
2022/04/04 03:41:12;;;;;;;2.90;2.40;;;;;;;2.56;51.28;96631.56;5114032;28;20027;-64
2022/04/04 03:43:38;;;;;;;2.80;2.50;;;;;;;2.48;52.58;96636.78;5113800;28;20035;-64
2022/04/04 03:46:04;;;;;;;3.08;2.58;;;;;;;2.35;52.98;96630.81;5113955;27;20023;-65
2022/04/04 03:48:30;;;;;;;3.55;2.50;;;;;;;2.30;53.36;96635.13;5114011;28;20479;-64
2022/04/04 03:50:55;;;;;;;3.47;2.35;;;;;;;2.29;54.69;96637.72;5114056;28;20027;-64
2022/04/04 03:53:22;;;;;;;2.50;2.30;;;;;;;2.23;55.00;96641.19;5113851;28;20466;-64
2022/04/04 03:55:48;;;;;;;2.92;2.20;;;;;;;2.18;55.00;96641.19;5113707;28;20035;-64
2022/04/04 03:58:14;;;;;;;6.30;2.30;;;;;;;2.09;56.44;96652.41;5113791;28;20427;-63
2022/04/04 04:00:40;;;;;;;4.93;2.53;;;;;;;1.97;57.76;96650.72;5113679;28;20023;-63
2022/04/04 04:03:07;;;;;;;3.28;2.35;;;;;;;1.93;56.68;96650.72;5113844;28;20380;-64
2022/04/04 04:05:33;;;;;;;3.08;2.50;;;;;;;1.91;54.68;96652.44;5113759;28;20043;-64
2022/04/04 04:07:59;;;;;;;6.40;2.60;;;;;;;1.84;56.10;96649.03;5113627;28;20474;-64
2022/04/04 04:10:25;;;;;;;4.25;3.65;;;;;;;1.81;56.06;96655.06;5113662;28;20099;-64
2022/04/04 04:12:51;;;;;;;4.60;4.05;;;;;;;1.73;56.81;96660.22;5113604;28;20437;-64
2022/04/04 04:15:20;;;;;;;3.70;2.97;;;;;;;1.81;56.16;96667.09;5113635;28;20051;-64
2022/04/04 04:17:46;;;;;;;4.38;2.90;;;;;;;1.74;57.74;96661.06;5113495;28;20030;-64
2022/04/04 04:20:21;;;;;;;3.67;2.97;;;;;;;1.78;58.35;96670.53;5113606;28;20027;-64
2022/04/04 04:22:55;;;;;;;3.08;2.70;;;;;;;1.82;58.91;96668.78;5113586;28;20029;-64
2022/04/04 04:25:23;;;;;;;2.80;2.58;;;;;;;1.78;59.92;96686.00;5113519;28;20389;-64
2022/04/04 04:27:49;;;;;;;3.92;2.97;;;;;;;1.75;60.58;96686.00;5113402;28;20066;-64
2022/04/04 04:30:15;;;;;;;3.00;2.70;;;;;;;1.78;60.99;96691.16;5113358;28;20059;-64
2022/04/04 04:32:50;;;;;;;5.90;2.78;;;;;;;1.74;60.37;96695.47;5113359;28;20023;-64
2022/04/04 04:35:17;;;;;;;3.88;2.50;;;;;;;1.83;60.46;96709.19;5113574;28;20035;-64
2022/04/04 04:37:44;;;;;;;5.57;2.67;;;;;;;1.97;60.41;96714.38;5114403;28;20030;-64
2022/04/04 04:40:11;;;;;;;4.80;3.08;;;;;;;2.23;59.47;96722.06;5117496;28;20111;-64
2022/04/04 04:42:37;;;;;;;4.05;2.30;;;;;;;2.77;58.43;96725.38;5117259;28;20116;-64
2022/04/04 04:45:05;;;;;;;3.20;2.50;;;;;;;3.28;56.99;96732.00;5117556;28;20449;-64
2022/04/04 04:47:31;;;;;;;3.42;2.78;;;;;;;3.86;54.88;96727.31;5117527;28;20035;-64
2022/04/04 04:49:57;;;;;;;3.10;2.50;;;;;;;4.51;52.90;96731.00;5117483;28;20027;-64
2022/04/04 04:52:24;;;;;;;2.40;2.20;;;;;;;5.14;52.58;96732.84;5117445;28;20366;-65
2022/04/04 04:54:50;;;;;;;2.95;2.30;;;;;;;5.50;51.57;96735.81;5117411;28;20024;-65
2022/04/04 04:57:17;;;;;;;2.78;2.30;;;;;;;5.74;49.97;96738.06;5117379;28;20023;-65
2022/04/04 04:59:44;;;;;;;2.75;2.38;;;;;;;6.20;46.90;96731.28;5117531;27;20178;-64
2022/04/04 05:02:10;;;;;;;3.35;2.65;;;;;;;6.84;47.72;96724.91;5117260;28;20373;-64
2022/04/04 05:04:37;;;;;;;3.00;2.70;;;;;;;7.40;45.48;96730.69;5117280;28;20073;-64
2022/04/04 05:07:03;;;;;;;3.90;2.53;;;;;;;7.55;44.89;96743.34;5117095;28;20058;-64
2022/04/04 05:09:29;;;;;;;3.92;2.90;;;;;;;7.79;42.62;96743.69;5117190;28;20027;-64
2022/04/04 05:11:55;;;;;;;4.70;4.00;;;;;;;7.84;41.26;96748.78;5117027;28;20039;-64
2022/04/04 05:14:20;;;;;;;3.95;3.55;;;;;;;7.74;41.67;96745.56;5117016;28;20062;-64
2022/04/04 05:16:47;;;;;;;4.53;3.63;;;;;;;7.69;41.83;96752.59;5116750;28;20385;-64
2022/04/04 05:19:17;;;;;;;4.72;3.70;;;;;;;7.85;41.03;96750.50;5116791;27;20023;-64
2022/04/04 05:21:43;;;;;;;3.87;3.53;;;;;;;8.02;39.80;96754.44;5116752;28;20557;-64
2022/04/04 05:24:09;;;;;;;3.90;3.50;;;;;;;8.28;40.54;96755.56;5116623;27;20411;-64
2022/04/04 05:26:35;;;;;;;4.10;3.17;;;;;;;8.41;39.80;96756.97;5116645;27;20030;-64
2022/04/04 05:29:01;;;;;;;7.70;4.03;;;;;;;8.43;38.80;96762.97;5116750;28;20493;-64
2022/04/04 05:31:27;;;;;;;4.75;3.30;;;;;;;8.67;38.25;96754.59;5116614;28;20027;-64
2022/04/04 05:33:54;;;;;;;3.85;3.40;;;;;;;9.00;39.39;96757.13;5116653;28;20103;-64
2022/04/04 05:36:20;;;;;;;5.68;3.45;;;;;;;9.32;36.69;96762.34;5116556;28;20023;-64
2022/04/04 05:38:50;;;;;;;3.45;3.10;;;;;;;9.41;36.52;96758.59;5116669;28;20568;-64
2022/04/04 05:41:18;;;;;;;3.70;3.28;;;;;;;9.81;36.96;96760.00;5116431;28;20035;-64
2022/04/04 05:43:47;;;;;;;4.75;3.40;;;;;;;9.86;36.42;96765.94;5116166;28;20124;-64
2022/04/04 05:46:15;;;;;;;4.50;3.85;;;;;;;10.14;36.69;96772.03;5116236;28;20020;-64
2022/04/04 05:48:42;;;;;;;5.32;2.97;;;;;;;10.19;37.04;96783.19;5116250;28;20023;-64
2022/04/04 05:51:08;;;;;;;6.15;3.38;;;;;;;10.18;35.82;96786.69;5115780;28;20024;-64
2022/04/04 05:53:34;;;;;;;3.50;3.20;;;;;;;10.44;35.04;96786.75;5116065;27;20435;-64
2022/04/04 05:56:01;;;;;;;5.28;3.40;;;;;;;10.62;35.53;96785.28;5116087;27;20028;-64
2022/04/04 05:58:27;;;;;;;4.07;3.55;;;;;;;10.67;35.37;96787.75;5116068;28;20107;-64
2022/04/04 06:00:53;;;;;;;3.97;3.45;;;;;;;10.89;35.47;96790.47;5116080;28;20517;-64
2022/04/04 06:03:19;;;;;;;5.95;3.67;;;;;;;11.08;35.22;96795.91;5116030;28;20016;-64
2022/04/04 06:05:49;;;;;;;4.35;3.58;;;;;;;11.14;35.06;96792.25;5115869;28;20043;-64
2022/04/04 06:08:19;;;;;;;3.63;3.30;;;;;;;10.93;35.55;96781.59;5115861;28;20578;-64
2022/04/04 06:10:45;;;;;;;4.00;3.58;;;;;;;11.08;35.27;96790.69;5115830;28;20528;-64
2022/04/04 06:13:15;;;;;;;4.18;3.78;;;;;;;11.29;34.92;96788.19;5115815;28;20393;-64
2022/04/04 06:15:42;;;;;;;4.88;4.03;;;;;;;11.17;35.32;96789.47;5114487;28;20377;-65
2022/04/04 06:18:09;;;;;;;4.25;3.50;;;;;;;11.23;34.33;96791.88;5115726;28;20023;-65
2022/04/04 06:20:35;;;;;;;4.10;3.70;;;;;;;11.53;35.55;96782.94;5115600;28;20068;-65
2022/04/04 06:23:01;;;;;;;3.55;3.25;;;;;;;11.51;33.90;96784.78;5115687;28;20362;-65
2022/04/04 06:25:26;;;;;;;3.95;3.38;;;;;;;11.60;33.69;96797.53;5115461;28;20080;-65
2022/04/04 06:27:53;;;;;;;3.75;3.45;;;;;;;11.60;34.96;96802.78;5114404;28;20110;-64
2022/04/04 06:30:20;;;;;;;5.53;4.30;;;;;;;11.65;34.18;96799.94;5115496;28;20389;-65
2022/04/04 06:32:46;;;;;;;5.05;4.13;;;;;;;11.79;33.44;96804.69;5115316;28;20020;-65
2022/04/04 06:35:13;;;;;;;4.10;3.33;;;;;;;11.72;33.05;96813.69;5115443;28;20026;-65
2022/04/04 06:37:39;;;;;;;5.53;3.72;;;;;;;11.97;34.49;96815.34;5115380;28;20012;-65
2022/04/04 06:40:07;;;;;;;5.15;3.85;;;;;;;12.02;33.97;96816.03;5115403;28;20089;-64
2022/04/04 06:42:37;;;;;;;8.48;3.90;;;;;;;11.98;33.38;96817.06;5115049;27;20059;-65
2022/04/04 06:45:04;;;;;;;4.18;3.78;;;;;;;12.15;34.88;96819.03;5115283;28;20061;-65
2022/04/04 06:47:31;;;;;;;6.70;3.80;;;;;;;12.38;33.42;96825.13;5115118;28;20030;-65
2022/04/04 06:49:58;;;;;;;5.55;4.05;;;;;;;12.86;33.75;96833.63;5115026;28;20019;-65
2022/04/04 06:52:24;;;;;;;6.43;3.88;;;;;;;13.11;32.40;96824.72;5114873;28;20034;-65
2022/04/04 06:54:49;;;;;;;4.53;3.70;;;;;;;13.40;32.15;96821.72;5115067;28;20023;-65
2022/04/04 06:57:16;;;;;;;3.97;3.58;;;;;;;13.54;29.98;96817.66;5115024;28;20066;-65
2022/04/04 06:59:42;;;;;;;5.20;3.95;;;;;;;13.32;30.38;96822.06;5115012;28;20099;-65
2022/04/04 07:02:09;;;;;;;3.88;3.33;;;;;;;13.13;32.34;96820.22;5113795;28;20055;-65
2022/04/04 07:04:37;;;;;;;3.85;3.55;;;;;;;13.09;31.82;96828.31;5114861;28;20030;-65
2022/04/04 07:07:04;;;;;;;4.07;3.78;;;;;;;13.23;33.18;96836.47;5113603;28;20028;-65
2022/04/04 07:09:29;;;;;;;4.47;4.00;;;;;;;13.43;32.40;96831.22;5113364;28;20020;-65
2022/04/04 07:11:56;;;;;;;3.85;3.40;;;;;;;13.60;32.59;96825.22;5114599;28;20028;-65
2022/04/04 07:14:22;;;;;;;4.55;3.78;;;;;;;13.83;32.85;96833.84;5114609;28;20062;-65
2022/04/04 07:16:51;;;;;;;5.35;3.95;;;;;;;14.27;32.28;96837.94;5114604;28;20023;-65
2022/04/04 07:19:17;;;;;;;3.92;3.58;;;;;;;14.42;30.52;96835.47;5114511;28;20016;-65
2022/04/04 07:21:52;;;;;;;3.75;3.45;;;;;;;14.72;28.30;96848.88;5131638;27;20881;-65
2022/04/04 07:24:19;;;;;;;3.55;3.25;;;;;;;14.69;29.02;96846.41;5131703;28;20019;-66
2022/04/04 07:26:45;;;;;;;4.07;3.47;;;;;;;14.68;28.48;96844.72;5131431;27;20039;-66
2022/04/04 07:29:11;;;;;;;4.40;3.42;;;;;;;14.74;29.88;96838.28;5131356;27;20023;-65
2022/04/04 07:31:37;;;;;;;4.85;3.85;;;;;;;14.85;30.16;96843.91;5131465;27;20358;-65
2022/04/04 07:34:03;;;;;;;5.75;4.18;;;;;;;14.44;30.68;96844.13;5131327;28;20102;-65
2022/04/04 07:36:30;;;;;;;5.05;3.85;;;;;;;14.07;31.05;96830.97;5131366;27;20110;-65
2022/04/04 07:38:55;;;;;;;4.22;3.40;;;;;;;14.22;32.23;96837.28;5131276;27;20377;-65
2022/04/04 07:41:21;;;;;;;4.07;3.58;;;;;;;14.45;31.86;96846.69;5131214;27;20023;-65
2022/04/04 07:43:48;;;;;;;4.47;3.78;;;;;;;14.71;32.71;96847.19;5131113;27;20100;-65
2022/04/04 07:46:13;;;;;;;4.07;3.67;;;;;;;15.05;31.36;96844.66;5131090;27;20481;-65
2022/04/04 07:48:41;;;;;;;3.88;3.47;;;;;;;15.25;27.76;96842.78;5131060;27;20028;-65
2022/04/04 07:51:08;;;;;;;4.78;3.75;;;;;;;15.25;29.60;96850.69;5129689;28;20028;-65
2022/04/04 07:53:34;;;;;;;4.60;4.10;;;;;;;14.77;33.54;96865.31;5130870;27;20102;-65
2022/04/04 07:55:59;;;;;;;3.88;3.45;;;;;;;14.93;29.32;96850.56;5130752;27;20462;-65
2022/04/04 07:58:25;;;;;;;4.03;3.55;;;;;;;14.60;29.59;96860.88;5130752;27;20019;-66
2022/04/04 08:00:52;;;;;;;4.18;3.67;;;;;;;14.37;28.76;96856.75;5130735;27;20051;-65
2022/04/04 08:03:19;;;;;;;3.72;3.42;;;;;;;14.17;30.66;96858.56;5130766;27;20031;-65
2022/04/04 08:05:45;;;;;;;3.72;3.42;;;;;;;14.32;31.67;96864.84;5130745;27;20016;-65
2022/04/04 08:08:11;;;;;;;5.60;2.92;;;;;;;14.64;31.24;96862.47;5130813;27;20102;-65
2022/04/04 08:10:36;;;;;;;4.00;3.30;;;;;;;14.73;29.29;96855.88;5130660;27;20030;-65
2022/04/04 08:13:03;;;;;;;3.53;2.95;;;;;;;14.58;29.19;96865.38;5130554;28;20016;-65
2022/04/04 08:15:29;;;;;;;4.00;3.40;;;;;;;14.27;30.51;96853.72;5130702;27;20022;-65
2022/04/04 08:17:54;;;;;;;5.63;3.38;;;;;;;14.12;30.01;96853.50;5130667;27;20377;-64
2022/04/04 08:20:21;;;;;;;3.50;3.20;;;;;;;14.10;30.87;96844.84;5130222;28;20039;-65
2022/04/04 08:22:47;;;;;;;3.65;3.33;;;;;;;13.99;29.83;96839.22;5130119;27;20039;-65
2022/04/04 08:25:15;;;;;;;5.60;3.83;;;;;;;14.04;32.13;96839.88;5130481;27;20031;-65
2022/04/04 08:27:44;;;;;;;4.45;4.05;;;;;;;13.86;35.06;96839.81;5130421;27;20093;-65
2022/04/04 08:30:12;;;;;;;7.55;4.10;;;;;;;14.15;31.02;96842.00;5130095;27;20434;-65
2022/04/04 08:32:39;;;;;;;4.32;3.85;;;;;;;14.19;32.66;96834.81;5119621;27;20067;-65
2022/04/04 08:35:10;;;;;;;4.40;4.00;;;;;;;14.66;31.23;96833.41;5116420;28;20027;-65
2022/04/04 08:37:37;;;;;;;6.63;4.20;;;;;;;14.91;31.43;96834.84;5116417;28;20023;-65
2022/04/04 08:40:05;;;;;;;4.60;4.18;;;;;;;14.72;33.01;96842.78;5116356;28;20027;-65
2022/04/04 08:42:31;;;;;;;5.18;4.43;;;;;;;14.39;32.90;96837.31;5115025;28;20103;-65
2022/04/04 08:44:59;;;;;;;7.55;4.22;;;;;;;13.61;32.82;96833.03;5116476;28;20481;-65
2022/04/04 08:47:25;;;;;;;4.63;4.05;;;;;;;13.86;32.94;96833.69;5116296;28;20024;-65
2022/04/04 08:49:52;;;;;;;4.75;4.03;;;;;;;13.76;33.94;96830.66;5116343;28;20053;-65
2022/04/04 08:52:18;;;;;;;8.77;5.15;;;;;;;13.82;34.51;96822.47;5116298;28;20020;-65
2022/04/04 08:54:44;;;;;;;8.40;4.90;;;;;;;13.98;35.76;96819.97;5116121;28;20031;-66
2022/04/04 08:57:10;;;;;;;5.53;5.03;;;;;;;14.01;34.78;96818.97;5116128;28;20030;-65
2022/04/04 08:59:35;;;;;;;4.88;4.38;;;;;;;14.33;34.55;96818.34;5115972;28;20043;-65
2022/04/04 09:02:02;;;;;;;6.30;4.25;;;;;;;14.44;34.09;96813.41;5116060;28;20534;-65
2022/04/04 09:04:27;;;;;;;6.18;3.88;;;;;;;14.38;35.17;96817.19;5115954;28;20054;-66
2022/04/04 09:06:56;;;;;;;5.68;4.32;;;;;;;14.48;32.05;96804.44;5115917;28;20051;-65
2022/04/04 09:09:36;;;;;;;4.57;4.18;;;;;;;14.45;34.19;96809.00;5115881;28;20461;-65
2022/04/04 09:12:07;;;;;;;5.15;4.65;;;;;;;14.20;36.21;96794.41;5115894;28;20042;-66
2022/04/04 09:14:57;;;;;;;4.13;3.72;;;;;;;14.10;37.26;96799.28;5115843;28;20466;-65
2022/04/04 09:17:33;;;;;;;4.85;4.43;;;;;;;13.92;33.97;96796.59;5115295;28;20043;-66
2022/04/04 09:20:08;;;;;;;4.80;4.30;;;;;;;14.33;36.39;96786.78;5115350;28;20420;-65
2022/04/04 09:22:33;;;;;;;6.75;5.25;;;;;;;14.68;35.38;96772.75;5115555;28;20023;-65
2022/04/04 09:25:02;;;;;;;7.07;5.00;;;;;;;14.68;34.52;96778.03;5115545;28;20114;-65
2022/04/04 09:27:36;;;;;;;4.55;4.03;;;;;;;14.84;35.59;96770.25;5115519;27;20084;-65
2022/04/04 09:30:07;;;;;;;4.10;3.75;;;;;;;14.81;34.75;96768.59;5115450;28;20378;-66
2022/04/04 09:32:43;;;;;;;6.65;5.18;;;;;;;14.57;33.00;96760.16;5115229;28;20019;-65
2022/04/04 09:35:16;;;;;;;5.07;4.57;;;;;;;14.13;36.06;96771.06;5115355;28;20461;-66
2022/04/04 09:37:47;;;;;;;6.00;5.07;;;;;;;13.73;35.92;96758.03;5115208;28;20016;-65
2022/04/04 09:40:22;;;;;;;5.32;4.32;;;;;;;13.74;33.39;96746.59;5115111;28;20085;-66
2022/04/04 09:42:51;;;;;;;5.15;4.50;;;;;;;13.75;33.81;96752.69;5114768;28;20020;-65
2022/04/04 09:45:18;;;;;;;5.30;4.55;;;;;;;13.34;34.98;96749.25;5114531;28;20032;-65
2022/04/04 09:48:01;;;;;;;4.68;4.15;;;;;;;13.30;34.21;96734.56;5115081;28;20028;-65
2022/04/04 09:50:39;;;;;;;4.22;3.80;;;;;;;13.74;36.18;96741.34;5115158;28;20035;-65
2022/04/04 09:53:21;;;;;;;6.32;4.55;;;;;;;14.01;35.04;96740.06;5115118;28;20032;-65
2022/04/04 09:55:51;;;;;;;4.93;4.43;;;;;;;14.20;36.22;96736.53;5115010;28;20068;-66
2022/04/04 09:58:19;;;;;;;5.85;4.70;;;;;;;14.33;36.39;96732.34;5114947;28;20036;-66
2022/04/04 10:00:46;;;;;;;6.18;4.55;;;;;;;14.26;36.42;96730.97;5114867;28;20111;-66
2022/04/04 10:03:14;;;;;;;4.72;4.03;;;;;;;14.17;37.38;96729.66;5114931;28;20377;-65
2022/04/04 10:05:53;;;;;;;4.85;4.30;;;;;;;14.31;34.50;96717.59;5114708;28;20532;-66
2022/04/04 10:08:22;;;;;;;5.15;4.50;;;;;;;14.00;32.92;96719.97;5114796;28;20072;-66
2022/04/04 10:10:49;;;;;;;4.32;3.92;;;;;;;13.85;34.36;96714.50;5114550;28;20496;-66
2022/04/04 10:13:16;;;;;;;4.78;4.28;;;;;;;13.91;37.85;96716.03;5114590;28;20076;-66
2022/04/04 10:15:42;;;;;;;5.13;4.63;;;;;;;13.62;36.98;96713.88;5114625;28;20069;-66
2022/04/04 10:18:10;;;;;;;4.40;4.00;;;;;;;13.70;37.90;96712.66;5114382;28;20102;-66
2022/04/04 10:20:36;;;;;;;4.07;3.72;;;;;;;13.92;37.82;96709.81;5114254;28;20079;-66
2022/04/04 10:23:03;;;;;;;4.93;4.15;;;;;;;14.00;36.30;96709.47;5114444;28;20020;-66
2022/04/04 10:25:31;;;;;;;6.25;4.53;;;;;;;14.39;34.87;96700.47;5114487;28;20072;-65
2022/04/04 10:27:59;;;;;;;5.40;4.38;;;;;;;14.74;36.29;96699.59;5114444;28;20026;-65
2022/04/04 10:30:40;;;;;;;5.28;4.28;;;;;;;14.30;36.86;96700.94;5114189;28;20028;-66
2022/04/04 10:33:22;;;;;;;5.20;4.55;;;;;;;13.64;36.14;96698.84;5114278;28;20037;-66
2022/04/04 10:36:08;;;;;;;4.65;4.15;;;;;;;14.03;36.16;96697.00;5114290;28;20019;-66
2022/04/04 10:38:39;;;;;;;4.78;4.28;;;;;;;14.32;35.80;96688.56;5114182;28;20093;-66
2022/04/04 10:41:08;;;;;;;4.72;4.32;;;;;;;14.46;35.37;96687.00;5114055;28;20028;-66
2022/04/04 10:43:36;;;;;;;5.38;4.60;;;;;;;14.78;34.91;96688.00;5113956;28;20027;-66
2022/04/04 10:46:08;;;;;;;6.00;4.03;;;;;;;15.00;34.09;96686.88;5114017;28;20019;-66
2022/04/04 10:48:37;;;;;;;4.75;4.35;;;;;;;14.62;32.39;96690.56;5113901;28;20041;-65
2022/04/04 10:51:17;;;;;;;5.28;4.70;;;;;;;14.30;35.06;96679.88;5113900;28;20016;-66
2022/04/04 10:53:51;;;;;;;5.20;4.40;;;;;;;14.59;36.34;96672.28;5113855;28;20473;-66
2022/04/04 10:56:23;;;;;;;6.30;4.90;;;;;;;14.49;35.67;96686.84;5113474;28;20027;-66
2022/04/04 10:58:52;;;;;;;4.75;4.30;;;;;;;14.42;33.84;96677.56;5113925;28;20099;-66
2022/04/04 11:01:22;;;;;;;9.55;4.97;;;;;;;14.03;35.61;96675.13;5113651;28;20093;-66
2022/04/04 11:03:51;;;;;;;4.95;4.53;;;;;;;13.72;35.53;96674.84;5113857;28;20019;-66
2022/04/04 11:09:08;;;;;;;9.15;4.65;;;;;;;14.09;35.05;96664.25;5114024;28;20050;-66
2022/04/04 11:11:55;;;;;;;4.45;4.05;;;;;;;14.21;33.93;96657.53;5113770;28;20023;-66
2022/04/04 11:14:26;;;;;;;4.60;4.10;;;;;;;13.96;35.59;96663.19;5113707;28;20049;-66
2022/04/04 11:17:23;;;;;;;4.95;4.45;;;;;;;13.76;33.96;96665.03;5113626;28;20027;-66
2022/04/04 11:20:00;;;;;;;4.90;4.38;;;;;;;12.97;34.57;96657.25;5113248;28;20343;-66
2022/04/04 11:22:31;;;;;;;5.30;4.80;;;;;;;12.85;34.77;96648.19;5113561;28;20089;-66
2022/04/04 11:25:03;;;;;;;8.85;5.07;;;;;;;12.66;35.22;96640.28;5112456;28;20027;-65
2022/04/04 11:27:34;;;;;;;4.97;4.45;;;;;;;12.61;38.00;96637.88;5113692;28;20420;-66
2022/04/04 11:30:07;;;;;;;4.18;3.78;;;;;;;12.59;39.23;96637.09;5113595;28;20024;-65
2022/04/04 11:32:38;;;;;;;4.55;4.15;;;;;;;12.64;36.94;96631.63;5113484;28;20028;-65
2022/04/04 11:35:11;;;;;;;6.28;4.60;;;;;;;12.81;37.84;96632.63;5113422;28;20027;-66
2022/04/04 11:37:54;;;;;;;5.07;4.05;;;;;;;12.76;37.16;96623.19;5113457;28;20482;-65
2022/04/04 11:40:34;;;;;;;4.55;4.05;;;;;;;12.75;35.91;96625.91;5113502;28;20028;-65
2022/04/04 11:43:05;;;;;;;5.68;4.38;;;;;;;12.67;36.52;96625.41;5113538;28;20111;-66